Time;durP1;ratioP1;P1;durP2;ratioP2;P2;SDS_P1;SDS_P2;PMS_P1;PMS_P2;Temp;Humidity;BMP_temperature;BMP_pressure;BME280_temperature;BME280_humidity;BME280_pressure;Samples;Min_cycle;Max_cycle;Signal;HPM_P1;HPM_P2
2021/09/14 00:02:05;;;;;;;;;;;;;;;;;;10496253;28;19931;-64
2021/09/14 00:07:07;;;;;;;;;;;;;;;;;;10497030;28;20047;-66
2021/09/14 00:12:09;;;;;;;;;;;;;;;;;;10496888;28;19932;-64
2021/09/14 00:17:12;;;;;;;;;;;;;;;;;;10496915;28;19931;-65
2021/09/14 00:22:14;;;;;;;;;;;;;;;;;;10496936;28;20435;-66
2021/09/14 00:27:17;;;;;;;;;;;;;;;;;;10495715;28;19928;-63
2021/09/14 00:32:19;;;;;;;;;;;;;;;;;;10496483;28;20377;-64
2021/09/14 00:37:22;;;;;;;;;;;;;;;;;;10496762;28;19924;-65
2021/09/14 00:42:24;;;;;;;;;;;;;;;;;;10495209;28;19958;-65
2021/09/14 00:47:26;;;;;;;;;;;;;;;;;;10496172;28;19925;-65
2021/09/14 00:52:29;;;;;;;;;;;;;;;;;;10478343;28;19943;-66
2021/09/14 00:57:31;;;;;;;;;;;;;;;;;;10494763;28;19924;-65
2021/09/14 01:02:34;;;;;;;;;;;;;;;;;;10496092;28;19924;-63
2021/09/14 01:07:36;;;;;;;;;;;;;;;;;;10496506;28;19955;-65
2021/09/14 01:12:38;;;;;;;;;;;;;;;;;;10494758;28;20306;-65
2021/09/14 01:17:41;;;;;;;;;;;;;;;;;;10502571;28;19928;-64
2021/09/14 01:22:43;;;;;;;;;;;;;;;;;;10503686;28;19974;-63
2021/09/14 01:27:46;;;;;;;;;;;;;;;;;;10502499;28;19925;-66
2021/09/14 01:32:55;;;;;;;;;;;;;;;;;;10502330;28;19924;-66
2021/09/14 01:38:00;;;;;;;;;;;;;;;;;;10501534;28;19925;-65
2021/09/14 01:43:08;;;;;;;;;;;;;;;;;;10500420;28;20325;-65
2021/09/14 01:48:11;;;;;;;;;;;;;;;;;;10497162;28;19928;-64
2021/09/14 01:53:15;;;;;;;;;;;;;;;;;;10499152;28;19928;-63
2021/09/14 01:58:19;;;;;;;;;;;;;;;;;;10500926;28;19931;-66
2021/09/14 02:08:50;;;;;;;;;;;;;;;;;;10502077;28;20016;-66
2021/09/14 03:02:06;;;;;;;;;;;;;;;;;;10480432;28;20332;-64
2021/09/14 03:07:09;;;;;;;;;;;;;;;;;;10498748;28;19928;-64
2021/09/14 03:12:15;;;;;;;;;;;;;;;;;;10497782;28;19924;-66
2021/09/14 03:17:21;;;;;;;;;;;;;;;;;;10497714;28;19994;-63
2021/09/14 03:22:23;;;;;;;;;;;;;;;;;;10498087;28;19928;-63
2021/09/14 03:27:26;;;;;;;;;;;;;;;;;;10498950;28;19928;-66
2021/09/14 03:32:28;;;;;;;;;;;;;;;;;;10497191;28;19932;-65
2021/09/14 03:37:31;;;;;;;;;;;;;;;;;;10497070;28;19924;-66
2021/09/14 03:42:37;;;;;;;;;;;;;;;;;;10496702;28;19928;-66
2021/09/14 03:47:39;;;;;;;;;;;;;;;;;;10496825;28;19924;-65
2021/09/14 03:52:41;;;;;;;;;;;;;;;;;;10496716;28;19931;-66
2021/09/14 03:57:44;;;;;;;;;;;;;;;;;;10496191;28;19951;-63
2021/09/14 04:02:54;;;;;;;;;;;;;;;;;;10496312;28;20220;-63
2021/09/14 04:13:14;;;;;;;;;;;;;;;;;;10496300;28;19924;-63
2021/09/14 04:18:17;;;;;;;;;;;;;;;;;;10496104;28;20353;-66
2021/09/14 04:23:23;;;;;;;;;;;;;;;;;;10495568;28;19952;-64
2021/09/14 04:28:25;;;;;;;;;;;;;;;;;;10495619;28;20008;-65
2021/09/14 04:33:27;;;;;;;;;;;;;;;;;;10496544;28;19924;-64
2021/09/14 04:38:30;;;;;;;;;;;;;;;;;;10495174;28;19954;-63
2021/09/14 04:43:33;;;;;;;;;;;;;;;;;;10494937;28;19924;-64
2021/09/14 04:48:37;;;;;;;;;;;;;;;;;;10495108;28;19932;-66
2021/09/14 04:53:39;;;;;;;;;;;;;;;;;;10494632;28;20020;-64
2021/09/14 04:58:43;;;;;;;;;;;;;;;;;;10495737;28;19932;-64
2021/09/14 05:03:46;;;;;;;;;;;;;;;;;;10494904;28;19925;-66
2021/09/14 05:08:49;;;;;;;;;;;;;;;;;;10494645;28;19947;-66
2021/09/14 05:13:51;;;;;;;;;;;;;;;;;;10494294;28;19925;-67
2021/09/14 05:18:53;;;;;;;;;;;;;;;;;;10494379;28;19924;-64
2021/09/14 05:23:56;;;;;;;;;;;;;;;;;;10494288;28;20186;-67
2021/09/14 05:28:58;;;;;;;;;;;;;;;;;;10493738;28;19924;-66
2021/09/14 05:34:01;;;;;;;;;;;;;;;;;;10494071;28;19928;-68
2021/09/14 05:39:03;;;;;;;;;;;;;;;;;;10493994;28;19978;-65
2021/09/14 05:44:06;;;;;;;;;;;;;;;;;;10493339;28;19929;-67
2021/09/14 05:49:08;;;;;;;;;;;;;;;;;;10490158;28;20309;-67
2021/09/14 05:54:11;;;;;;;;;;;;;;;;;;10486808;28;20000;-65
2021/09/14 05:59:14;;;;;;;;;;;;;;;;;;10516901;28;20041;-65
2021/09/14 06:04:16;;;;;;;;;;;;;;;;;;10526257;28;19974;-67
2021/09/14 06:09:19;;;;;;;;;;;;;;;;;;10543193;28;19924;-65
2021/09/14 06:14:22;;;;;;;;;;;;;;;;;;10541862;28;19924;-71
2021/09/14 06:19:24;;;;;;;;;;;;;;;;;;10542515;28;19931;-66
2021/09/14 06:24:27;;;;;;;;;;;;;;;;;;10542238;28;19955;-67
2021/09/14 06:29:29;;;;;;;;;;;;;;;;;;10541442;28;20365;-59
2021/09/14 06:34:32;;;;;;;;;;;;;;;;;;10541081;28;19960;-60
2021/09/14 06:39:35;;;;;;;;;;;;;;;;;;10525120;28;19925;-58
2021/09/14 06:44:38;;;;;;;;;;;;;;;;;;10518418;28;20380;-61
2021/09/14 06:49:45;;;;;;;;;;;;;;;;;;10501474;28;19964;-60
2021/09/14 06:55:00;;;;;;;;;;;;;;;;;;10500646;28;20031;-61
2021/09/14 07:00:02;;;;;;;;;;;;;;;;;;10501009;28;19928;-61
2021/09/14 07:05:05;;;;;;;;;;;;;;;;;;10499919;28;19932;-59
2021/09/14 07:10:07;;;;;;;;;;;;;;;;;;10500555;28;19924;-58
2021/09/14 07:15:10;;;;;;;;;;;;;;;;;;10510254;28;19924;-58
2021/09/14 07:20:12;;;;;;;;;;;;;;;;;;10516730;28;20386;-60
2021/09/14 07:25:14;;;;;;;;;;;;;;;;;;10498882;28;19924;-61
2021/09/14 07:30:17;;;;;;;;;;;;;;;;;;10520367;28;19927;-61
2021/09/14 07:35:19;;;;;;;;;;;;;;;;;;10541260;28;19924;-60
2021/09/14 07:40:22;;;;;;;;;;;;;;;;;;10540539;28;20721;-58
2021/09/14 07:45:24;;;;;;;;;;;;;;;;;;10540042;28;19950;-62
2021/09/14 07:50:27;;;;;;;;;;;;;;;;;;10539116;28;19977;-60
2021/09/14 07:55:29;;;;;;;;;;;;;;;;;;10540142;28;19924;-58
2021/09/14 08:00:32;;;;;;;;;;;;;;;;;;10502941;28;19924;-59
2021/09/14 08:05:35;;;;;;;;;;;;;;;;;;10496571;28;19924;-59
2021/09/14 08:10:37;;;;;;;;;;;;;;;;;;10496905;28;20271;-59
2021/09/14 08:15:39;;;;;;;;;;;;;;;;;;10504785;28;19939;-60
2021/09/14 08:20:42;;;;;;;;;;;;;;;;;;10513206;28;19924;-58
2021/09/14 08:25:44;;;;;;;;;;;;;;;;;;10512601;28;20286;-61
2021/09/14 08:30:47;;;;;;;;;;;;;;;;;;10515573;28;19977;-63
2021/09/14 08:35:49;;;;;;;;;;;;;;;;;;10497089;28;19928;-60
2021/09/14 08:40:52;;;;;;;;;;;;;;;;;;10593187;22;20376;-61
2021/09/14 08:45:54;;;;;;;;;;;;;;;;;;10499664;28;19924;-59
2021/09/14 08:50:59;;;;;;;;;;;;;;;;;;10519563;28;19931;-60
2021/09/14 08:56:02;;;;;;;;;;;;;;;;;;10536209;28;19927;-61
2021/09/14 09:01:07;;;;;;;;;;;;;;;;;;10537910;28;19967;-60
2021/09/14 09:06:12;;;;;;;;;;;;;;;;;;10537525;28;19924;-60
2021/09/14 09:11:14;;;;;;;;;;;;;;;;;;10537726;28;19924;-62
2021/09/14 09:16:17;;;;;;;;;;;;;;;;;;10537119;28;19924;-62
2021/09/14 09:21:19;;;;;;;;;;;;;;;;;;10537353;28;19928;-61
2021/09/14 09:26:22;;;;;;;;;;;;;;;;;;10528322;28;19931;-59
2021/09/14 09:31:24;;;;;;;;;;;;;;;;;;10488952;28;20634;-58
2021/09/14 09:36:26;;;;;;;;;;;;;;;;;;10507640;28;19935;-60
2021/09/14 09:41:33;;;;;;;;;;;;;;;;;;10515795;28;19928;-59
2021/09/14 09:46:36;;;;;;;;;;;;;;;;;;10515470;28;19932;-57
2021/09/14 09:51:38;;;;;;;;;;;;;;;;;;10516115;28;19928;-59
2021/09/14 09:56:40;;;;;;;;;;;;;;;;;;10515530;28;19928;-59
2021/09/14 10:01:43;;;;;;;;;;;;;;;;;;10517460;28;19974;-59
2021/09/14 10:06:48;;;;;;;;;;;;;;;;;;10516159;28;20600;-64
2021/09/14 10:11:50;;;;;;;;;;;;;;;;;;10514045;28;20471;-59
2021/09/14 10:16:53;;;;;;;;;;;;;;;;;;10514514;28;19928;-65
2021/09/14 10:21:55;;;;;;;;;;;;;;;;;;10515714;28;19928;-63
2021/09/14 10:26:58;;;;;;;;;;;;;;;;;;10510867;28;19928;-60
2021/09/14 10:32:00;;;;;;;;;;;;;;;;;;10512980;28;19929;-59
2021/09/14 10:37:02;;;;;;;;;;;;;;;;;;10514272;28;19974;-65
2021/09/14 10:42:05;;;;;;;;;;;;;;;;;;10513923;28;19924;-65
2021/09/14 10:47:07;;;;;;;;;;;;;;;;;;10513159;28;19924;-66
2021/09/14 10:52:10;;;;;;;;;;;;;;;;;;10511758;28;19928;-65
2021/09/14 10:57:12;;;;;;;;;;;;;;;;;;10512749;28;19924;-66
2021/09/14 11:02:15;;;;;;;;;;;;;;;;;;10510863;28;19939;-66
2021/09/14 11:07:20;;;;;;;;;;;;;;;;;;10533409;28;19928;-68
2021/09/14 11:12:23;;;;;;;;;;;;;;;;;;10534504;28;20392;-61
2021/09/14 11:17:25;;;;;;;;;;;;;;;;;;10535137;28;19931;-61
2021/09/14 11:22:28;;;;;;;;;;;;;;;;;;10537737;28;19924;-68
2021/09/14 11:27:30;;;;;;;;;;;;;;;;;;10540843;28;19939;-61
2021/09/14 11:32:33;;;;;;;;;;;;;;;;;;10540802;28;19942;-68
2021/09/14 11:37:35;;;;;;;;;;;;;;;;;;10541129;28;19964;-60
2021/09/14 11:42:39;;;;;;;;;;;;;;;;;;10540040;28;20274;-61
2021/09/14 11:47:44;;;;;;;;;;;;;;;;;;10540081;28;19924;-68
2021/09/14 11:52:50;;;;;;;;;;;;;;;;;;10493816;28;19924;-61
2021/09/14 11:57:52;;;;;;;;;;;;;;;;;;10514361;28;19931;-60
2021/09/14 12:02:55;;;;;;;;;;;;;;;;;;10540452;28;20407;-60
2021/09/14 12:07:57;;;;;;;;;;;;;;;;;;10540166;28;19924;-60
2021/09/14 12:12:59;;;;;;;;;;;;;;;;;;10539789;28;19967;-67
2021/09/14 12:18:02;;;;;;;;;;;;;;;;;;10537663;28;19924;-67
2021/09/14 12:23:04;;;;;;;;;;;;;;;;;;10537825;28;19928;-67
2021/09/14 12:28:07;;;;;;;;;;;;;;;;;;10538081;28;19934;-67
2021/09/14 12:33:09;;;;;;;;;;;;;;;;;;10539953;28;19924;-61
2021/09/14 12:38:11;;;;;;;;;;;;;;;;;;10540139;28;19924;-59
2021/09/14 12:43:14;;;;;;;;;;;;;;;;;;10520538;28;19931;-59
2021/09/14 12:48:18;;;;;;;;;;;;;;;;;;10538493;28;21438;-60
2021/09/14 12:53:21;;;;;;;;;;;;;;;;;;10539052;28;19931;-60
2021/09/14 12:58:23;;;;;;;;;;;;;;;;;;10538551;28;19924;-66
2021/09/14 13:03:25;;;;;;;;;;;;;;;;;;10538459;28;20007;-60
2021/09/14 13:08:28;;;;;;;;;;;;;;;;;;10538430;28;19924;-59
2021/09/14 13:18:53;;;;;;;;;;;;;;;;;;10545797;28;19930;-61
2021/09/14 13:23:55;;;;;;;;;;;;;;;;;;10546593;28;19924;-68
2021/09/14 13:28:57;;;;;;;;;;;;;;;;;;10546377;28;19924;-70
2021/09/14 13:39:13;;;;;;;;;;;;;;;;;;10492504;28;19966;-59
2021/09/14 13:49:38;;;;;;;;;;;;;;;;;;10489994;28;19936;-59
2021/09/14 13:54:40;;;;;;;;;;;;;;;;;;10491660;28;20268;-59
2021/09/14 13:59:44;;;;;;;;;;;;;;;;;;10491659;28;19925;-69
2021/09/14 14:04:46;;;;;;;;;;;;;;;;;;10490844;28;19932;-67
2021/09/14 14:09:48;;;;;;;;;;;;;;;;;;10483644;28;19936;-60
2021/09/14 14:14:51;;;;;;;;;;;;;;;;;;10482020;28;19951;-60
2021/09/14 14:19:53;;;;;;;;;;;;;;;;;;10486341;28;19928;-60
2021/09/14 14:24:55;;;;;;;;;;;;;;;;;;10449621;28;19974;-60
2021/09/14 14:29:59;;;;;;;;;;;;;;;;;;10448369;28;19937;-65
2021/09/14 14:35:01;;;;;;;;;;;;;;;;;;10380747;28;103974;-65
2021/09/14 14:40:45;;;;;;;;;;;;;;;;;;10575066;27;19981;-60
2021/09/14 14:45:48;;;;;;;;;;;;;;;;;;10572311;28;19928;-61
2021/09/14 14:50:50;;;;;;;;;;;;;;;;;;10571000;28;19936;-63
2021/09/14 14:55:52;;;;;;;;;;;;;;;;;;10570287;28;19928;-63
2021/09/14 15:00:55;;;;;;;;;;;;;;;;;;10570116;28;19935;-61
2021/09/14 15:05:59;;;;;;;;;;;;;;;;;;10568855;28;19971;-60
2021/09/14 15:11:03;;;;;;;;;;;;;;;;;;10569432;28;20424;-63
2021/09/14 15:16:08;;;;;;;;;;;;;;;;;;10449600;27;20355;-62
2021/09/14 15:21:10;;;;;;;;;;;;;;;;;;10473813;28;19937;-64
2021/09/14 15:26:13;;;;;;;;;;;;;;;;;;10486239;28;19979;-64
2021/09/14 15:31:15;;;;;;;;;;;;;;;;;;10480817;28;19929;-63
2021/09/14 15:36:17;;;;;;;;;;;;;;;;;;10476228;28;19932;-63
2021/09/14 15:41:20;;;;;;;;;;;;;;;;;;10485622;28;20303;-64
2021/09/14 15:46:23;;;;;;;;;;;;;;;;;;10487696;28;19974;-63
2021/09/14 15:51:25;;;;;;;;;;;;;;;;;;10463887;28;19925;-64
2021/09/14 15:56:27;;;;;;;;;;;;;;;;;;10460575;28;19932;-63
2021/09/14 16:01:30;;;;;;;;;;;;;;;;;;10460564;28;20402;-63
2021/09/14 16:06:32;;;;;;;;;;;;;;;;;;10459611;28;19924;-62
2021/09/14 16:11:35;;;;;;;;;;;;;;;;;;10453032;28;19979;-64
2021/09/14 16:16:37;;;;;;;;;;;;;;;;;;10451965;28;19928;-64
2021/09/14 16:21:40;;;;;;;;;;;;;;;;;;10453812;28;20349;-64
2021/09/14 16:26:42;;;;;;;;;;;;;;;;;;10454822;28;19943;-62
2021/09/14 16:31:45;;;;;;;;;;;;;;;;;;10453719;28;20300;-64
2021/09/14 16:36:47;;;;;;;;;;;;;;;;;;10452385;28;19933;-63
2021/09/14 16:41:51;;;;;;;;;;;;;;;;;;10452812;28;19982;-64
2021/09/14 16:46:55;;;;;;;;;;;;;;;;;;10453196;28;19929;-62
2021/09/14 16:51:57;;;;;;;;;;;;;;;;;;10452519;28;19940;-61
2021/09/14 16:57:00;;;;;;;;;;;;;;;;;;10452429;28;19940;-62
2021/09/14 17:02:02;;;;;;;;;;;;;;;;;;10451704;28;19935;-64
2021/09/14 17:07:05;;;;;;;;;;;;;;;;;;10453225;28;20019;-64
2021/09/14 17:12:08;;;;;;;;;;;;;;;;;;10455426;28;20260;-62
2021/09/14 17:17:11;;;;;;;;;;;;;;;;;;10457926;28;20277;-62
2021/09/14 17:22:13;;;;;;;;;;;;;;;;;;10457469;28;19925;-62
2021/09/14 17:27:16;;;;;;;;;;;;;;;;;;10457666;28;19925;-63
2021/09/14 17:32:18;;;;;;;;;;;;;;;;;;10455981;28;20404;-65
2021/09/14 17:37:21;;;;;;;;;;;;;;;;;;10457900;28;19936;-64
2021/09/14 17:42:24;;;;;;;;;;;;;;;;;;10455847;28;19931;-65
2021/09/14 17:47:28;;;;;;;;;;;;;;;;;;10457945;28;19929;-64
2021/09/14 17:52:30;;;;;;;;;;;;;;;;;;10448332;28;19944;-64
2021/09/14 17:57:33;;;;;;;;;;;;;;;;;;10452318;28;19925;-64
2021/09/14 18:02:36;;;;;;;;;;;;;;;;;;10452219;28;19925;-64
2021/09/14 18:07:39;;;;;;;;;;;;;;;;;;10450171;28;19929;-63
2021/09/14 18:12:41;;;;;;;;;;;;;;;;;;10451742;28;20280;-63
2021/09/14 18:17:44;;;;;;;;;;;;;;;;;;10451847;28;20388;-63
2021/09/14 18:22:47;;;;;;;;;;;;;;;;;;10451145;28;19924;-68
2021/09/14 18:27:49;;;;;;;;;;;;;;;;;;10451458;28;20470;-76
2021/09/14 18:32:52;;;;;;;;;;;;;;;;;;10451072;28;20015;-68
2021/09/14 18:37:54;;;;;;;;;;;;;;;;;;10450550;28;20333;-75
2021/09/14 18:42:57;;;;;;;;;;;;;;;;;;10450938;28;19928;-68
2021/09/14 18:48:00;;;;;;;;;;;;;;;;;;10450579;28;19925;-68
2021/09/14 18:53:05;;;;;;;;;;;;;;;;;;10425483;28;19960;-78
2021/09/14 18:58:08;;;;;;;;;;;;;;;;;;10428932;28;19925;-78
2021/09/14 19:03:10;;;;;;;;;;;;;;;;;;10413404;28;19932;-75
2021/09/14 19:08:13;;;;;;;;;;;;;;;;;;10413422;28;19926;-77
2021/09/14 19:13:23;;;;;;;;;;;;;;;;;;10413878;28;19925;-69
2021/09/14 19:18:28;;;;;;;;;;;;;;;;;;10413451;28;19964;-69
2021/09/14 19:23:34;;;;;;;;;;;;;;;;;;10414820;28;20463;-77
2021/09/14 19:28:37;;;;;;;;;;;;;;;;;;10426992;28;19929;-69
2021/09/14 19:33:42;;;;;;;;;;;;;;;;;;10456706;28;20410;-69
2021/09/14 19:38:47;;;;;;;;;;;;;;;;;;10454792;28;19932;-69
2021/09/14 19:43:49;;;;;;;;;;;;;;;;;;10455568;28;19974;-67
2021/09/14 19:48:56;;;;;;;;;;;;;;;;;;10454494;28;19929;-76
2021/09/14 19:53:59;;;;;;;;;;;;;;;;;;10453802;28;20039;-68
2021/09/14 19:59:05;;;;;;;;;;;;;;;;;;10454172;28;20403;-68
2021/09/14 20:04:10;;;;;;;;;;;;;;;;;;10454768;28;19929;-67
2021/09/14 20:09:20;;;;;;;;;;;;;;;;;;10454412;28;19964;-73
2021/09/14 20:14:23;;;;;;;;;;;;;;;;;;10454825;28;19937;-73
2021/09/14 20:19:26;;;;;;;;;;;;;;;;;;10452948;28;20032;-76
2021/09/14 20:24:36;;;;;;;;;;;;;;;;;;10455405;28;19924;-75
2021/09/14 20:29:44;;;;;;;;;;;;;;;;;;10451151;28;19964;-71
2021/09/14 20:34:48;;;;;;;;;;;;;;;;;;10452727;28;19928;-75
2021/09/14 20:39:53;;;;;;;;;;;;;;;;;;10513264;22;19930;-76
2021/09/14 20:44:58;;;;;;;;;;;;;;;;;;10322573;28;19936;-71
2021/09/14 20:50:02;;;;;;;;;;;;;;;;;;10273344;28;19936;-78
2021/09/14 20:55:05;;;;;;;;;;;;;;;;;;10321311;28;19958;-76
2021/09/14 21:00:13;;;;;;;;;;;;;;;;;;10289491;28;20409;-78
2021/09/14 21:05:17;;;;;;;;;;;;;;;;;;10289770;28;19936;-75
2021/09/14 21:10:27;;;;;;;;;;;;;;;;;;10273824;28;20008;-72
2021/09/14 21:15:30;;;;;;;;;;;;;;;;;;10289071;28;20013;-73
2021/09/14 21:20:33;;;;;;;;;;;;;;;;;;10289678;28;19941;-72
2021/09/14 21:25:37;;;;;;;;;;;;;;;;;;10289392;28;19930;-72
2021/09/14 21:30:39;;;;;;;;;;;;;;;;;;10285824;28;19934;-75
2021/09/14 21:35:42;;;;;;;;;;;;;;;;;;10288044;28;19937;-72
2021/09/14 21:40:45;;;;;;;;;;;;;;;;;;10286780;28;19934;-76
2021/09/14 21:45:51;;;;;;;;;;;;;;;;;;10293010;28;20029;-71
2021/09/14 21:50:54;;;;;;;;;;;;;;;;;;10293918;28;19933;-76
2021/09/14 21:55:58;;;;;;;;;;;;;;;;;;10294061;28;19930;-76
2021/09/14 22:01:01;;;;;;;;;;;;;;;;;;10293477;28;19970;-71
2021/09/14 22:06:05;;;;;;;;;;;;;;;;;;10293809;28;20013;-77
2021/09/14 22:11:08;;;;;;;;;;;;;;;;;;10293480;28;20453;-76
2021/09/14 22:16:12;;;;;;;;;;;;;;;;;;10293340;28;19930;-75
2021/09/14 22:21:17;;;;;;;;;;;;;;;;;;10293404;28;19926;-72
2021/09/14 22:26:19;;;;;;;;;;;;;;;;;;10293012;28;19926;-72
2021/09/14 22:31:22;;;;;;;;;;;;;;;;;;10324117;28;19930;-77
2021/09/14 22:36:25;;;;;;;;;;;;;;;;;;10323809;28;19926;-75
2021/09/14 22:41:28;;;;;;;;;;;;;;;;;;10292645;28;20393;-75
2021/09/14 22:46:30;;;;;;;;;;;;;;;;;;10323754;28;19930;-71
2021/09/14 22:51:34;;;;;;;;;;;;;;;;;;10323547;28;19926;-76
2021/09/14 22:56:36;;;;;;;;;;;;;;;;;;10291746;28;19926;-71
2021/09/14 23:01:39;;;;;;;;;;;;;;;;;;10313526;28;20293;-71
2021/09/14 23:06:42;;;;;;;;;;;;;;;;;;10300457;28;20255;-75
2021/09/14 23:11:45;;;;;;;;;;;;;;;;;;10297714;28;20306;-71
2021/09/14 23:16:48;;;;;;;;;;;;;;;;;;10297746;28;19926;-77
2021/09/14 23:21:50;;;;;;;;;;;;;;;;;;10298139;28;19933;-71
2021/09/14 23:26:52;;;;;;;;;;;;;;;;;;10298642;28;19953;-71
2021/09/14 23:31:55;;;;;;;;;;;;;;;;;;10300101;28;19953;-74
2021/09/14 23:36:58;;;;;;;;;;;;;;;;;;10329878;28;20018;-71
2021/09/14 23:42:01;;;;;;;;;;;;;;;;;;10279669;28;19954;-76
2021/09/14 23:47:04;;;;;;;;;;;;;;;;;;10256634;29;19934;-75
2021/09/14 23:52:08;;;;;;;;;;;;;;;;;;10259404;29;19927;-75
2021/09/14 23:57:10;;;;;;;;;;;;;;;;;;10258509;29;19926;-71
